sensor_id;sensor_type;location;lat;lon;timestamp;P1;durP1;ratioP1;P2;durP2;ratioP2
84495;SDS011;74855;51.206;17.408;2024-02-26T00:01:04;18.77;;;9.05;;
84495;SDS011;74855;51.206;17.408;2024-02-26T00:06:01;16.85;;;8.48;;
84495;SDS011;74855;51.206;17.408;2024-02-26T00:10:57;15.50;;;8.52;;
84495;SDS011;74855;51.206;17.408;2024-02-26T00:15:53;16.85;;;7.88;;
84495;SDS011;74855;51.206;17.408;2024-02-26T00:20:49;18.42;;;8.52;;
84495;SDS011;74855;51.206;17.408;2024-02-26T00:25:46;16.70;;;8.60;;
84495;SDS011;74855;51.206;17.408;2024-02-26T00:30:42;17.90;;;8.23;;
84495;SDS011;74855;51.206;17.408;2024-02-26T00:35:38;18.20;;;8.63;;
84495;SDS011;74855;51.206;17.408;2024-02-26T00:40:33;18.40;;;8.32;;
84495;SDS011;74855;51.206;17.408;2024-02-26T00:45:31;17.30;;;8.40;;
84495;SDS011;74855;51.206;17.408;2024-02-26T00:50:26;18.23;;;8.38;;
84495;SDS011;74855;51.206;17.408;2024-02-26T00:55:23;17.15;;;8.63;;
84495;SDS011;74855;51.206;17.408;2024-02-26T01:00:19;18.30;;;8.18;;
84495;SDS011;74855;51.206;17.408;2024-02-26T01:05:16;14.48;;;7.53;;
84495;SDS011;74855;51.206;17.408;2024-02-26T01:10:14;16.00;;;7.80;;
84495;SDS011;74855;51.206;17.408;2024-02-26T01:15:10;15.90;;;7.18;;
84495;SDS011;74855;51.206;17.408;2024-02-26T01:20:06;16.05;;;7.60;;
84495;SDS011;74855;51.206;17.408;2024-02-26T01:25:04;16.27;;;8.38;;
84495;SDS011;74855;51.206;17.408;2024-02-26T01:30:00;17.30;;;7.95;;
84495;SDS011;74855;51.206;17.408;2024-02-26T01:34:58;16.15;;;8.30;;
84495;SDS011;74855;51.206;17.408;2024-02-26T01:39:53;16.65;;;9.45;;
84495;SDS011;74855;51.206;17.408;2024-02-26T01:44:50;18.10;;;8.88;;
84495;SDS011;74855;51.206;17.408;2024-02-26T01:49:46;15.82;;;8.27;;
84495;SDS011;74855;51.206;17.408;2024-02-26T01:54:42;16.45;;;8.07;;
84495;SDS011;74855;51.206;17.408;2024-02-26T01:59:41;15.65;;;8.10;;
84495;SDS011;74855;51.206;17.408;2024-02-26T02:04:38;15.05;;;7.93;;
84495;SDS011;74855;51.206;17.408;2024-02-26T02:09:34;17.58;;;8.38;;
84495;SDS011;74855;51.206;17.408;2024-02-26T02:14:30;15.20;;;8.45;;
84495;SDS011;74855;51.206;17.408;2024-02-26T02:19:26;16.42;;;8.35;;
84495;SDS011;74855;51.206;17.408;2024-02-26T02:24:23;14.38;;;7.97;;
84495;SDS011;74855;51.206;17.408;2024-02-26T02:29:19;14.88;;;7.72;;
84495;SDS011;74855;51.206;17.408;2024-02-26T02:34:15;15.82;;;8.02;;
84495;SDS011;74855;51.206;17.408;2024-02-26T02:39:11;15.73;;;7.32;;
84495;SDS011;74855;51.206;17.408;2024-02-26T02:44:09;16.08;;;7.22;;
84495;SDS011;74855;51.206;17.408;2024-02-26T02:49:07;19.77;;;7.03;;
84495;SDS011;74855;51.206;17.408;2024-02-26T02:54:03;14.65;;;6.97;;
84495;SDS011;74855;51.206;17.408;2024-02-26T02:58:59;15.98;;;7.65;;
84495;SDS011;74855;51.206;17.408;2024-02-26T03:03:56;15.25;;;7.28;;
84495;SDS011;74855;51.206;17.408;2024-02-26T03:08:52;15.88;;;6.93;;
84495;SDS011;74855;51.206;17.408;2024-02-26T03:13:48;17.75;;;7.43;;
84495;SDS011;74855;51.206;17.408;2024-02-26T03:18:44;17.70;;;8.20;;
84495;SDS011;74855;51.206;17.408;2024-02-26T03:23:41;18.15;;;8.10;;
84495;SDS011;74855;51.206;17.408;2024-02-26T03:28:37;13.52;;;7.72;;
84495;SDS011;74855;51.206;17.408;2024-02-26T03:33:32;14.07;;;8.25;;
84495;SDS011;74855;51.206;17.408;2024-02-26T03:38:29;17.23;;;7.68;;
84495;SDS011;74855;51.206;17.408;2024-02-26T03:43:26;15.48;;;7.15;;
84495;SDS011;74855;51.206;17.408;2024-02-26T03:48:22;20.65;;;8.65;;
84495;SDS011;74855;51.206;17.408;2024-02-26T03:53:17;14.48;;;7.93;;
84495;SDS011;74855;51.206;17.408;2024-02-26T03:58:13;21.45;;;8.32;;
84495;SDS011;74855;51.206;17.408;2024-02-26T04:03:10;14.93;;;7.85;;
84495;SDS011;74855;51.206;17.408;2024-02-26T04:08:06;20.00;;;8.40;;
84495;SDS011;74855;51.206;17.408;2024-02-26T04:13:02;17.40;;;9.15;;
84495;SDS011;74855;51.206;17.408;2024-02-26T04:17:58;20.17;;;8.55;;
84495;SDS011;74855;51.206;17.408;2024-02-26T04:22:55;16.58;;;8.30;;
84495;SDS011;74855;51.206;17.408;2024-02-26T04:27:51;17.38;;;10.45;;
84495;SDS011;74855;51.206;17.408;2024-02-26T04:37:42;15.73;;;8.07;;
84495;SDS011;74855;51.206;17.408;2024-02-26T04:42:39;18.33;;;9.13;;
84495;SDS011;74855;51.206;17.408;2024-02-26T04:47:35;19.88;;;9.32;;
84495;SDS011;74855;51.206;17.408;2024-02-26T04:52:33;18.05;;;9.27;;
84495;SDS011;74855;51.206;17.408;2024-02-26T04:57:28;17.15;;;8.38;;
84495;SDS011;74855;51.206;17.408;2024-02-26T05:07:21;23.45;;;10.50;;
84495;SDS011;74855;51.206;17.408;2024-02-26T05:12:17;15.90;;;10.43;;
84495;SDS011;74855;51.206;17.408;2024-02-26T05:22:09;17.17;;;10.00;;
84495;SDS011;74855;51.206;17.408;2024-02-26T05:27:05;16.75;;;9.35;;
84495;SDS011;74855;51.206;17.408;2024-02-26T05:32:02;15.00;;;8.60;;
84495;SDS011;74855;51.206;17.408;2024-02-26T05:41:55;19.83;;;11.00;;
84495;SDS011;74855;51.206;17.408;2024-02-26T05:46:52;20.13;;;9.65;;
84495;SDS011;74855;51.206;17.408;2024-02-26T05:51:48;17.85;;;11.20;;
84495;SDS011;74855;51.206;17.408;2024-02-26T05:56:44;17.77;;;8.95;;
84495;SDS011;74855;51.206;17.408;2024-02-26T06:06:36;15.00;;;8.65;;
84495;SDS011;74855;51.206;17.408;2024-02-26T06:11:32;20.58;;;9.45;;
84495;SDS011;74855;51.206;17.408;2024-02-26T06:16:28;17.00;;;10.23;;
84495;SDS011;74855;51.206;17.408;2024-02-26T06:21:25;17.17;;;9.05;;
84495;SDS011;74855;51.206;17.408;2024-02-26T06:26:21;16.17;;;9.35;;
84495;SDS011;74855;51.206;17.408;2024-02-26T06:36:12;16.67;;;8.53;;
84495;SDS011;74855;51.206;17.408;2024-02-26T06:46:05;20.83;;;10.38;;
84495;SDS011;74855;51.206;17.408;2024-02-26T06:51:01;21.63;;;10.63;;
84495;SDS011;74855;51.206;17.408;2024-02-26T06:55:57;17.92;;;10.60;;
84495;SDS011;74855;51.206;17.408;2024-02-26T07:00:54;22.30;;;11.32;;
84495;SDS011;74855;51.206;17.408;2024-02-26T07:05:50;17.75;;;9.95;;
84495;SDS011;74855;51.206;17.408;2024-02-26T07:10:46;26.83;;;11.35;;
84495;SDS011;74855;51.206;17.408;2024-02-26T07:15:42;22.23;;;12.18;;
84495;SDS011;74855;51.206;17.408;2024-02-26T07:20:39;19.08;;;10.88;;
84495;SDS011;74855;51.206;17.408;2024-02-26T07:25:41;21.30;;;11.25;;
84495;SDS011;74855;51.206;17.408;2024-02-26T07:30:36;21.65;;;11.38;;
84495;SDS011;74855;51.206;17.408;2024-02-26T07:35:32;20.88;;;12.82;;
84495;SDS011;74855;51.206;17.408;2024-02-26T07:40:29;27.83;;;14.43;;
84495;SDS011;74855;51.206;17.408;2024-02-26T07:45:25;20.05;;;12.52;;
84495;SDS011;74855;51.206;17.408;2024-02-26T07:50:21;19.33;;;12.30;;
84495;SDS011;74855;51.206;17.408;2024-02-26T07:55:17;15.02;;;9.23;;
84495;SDS011;74855;51.206;17.408;2024-02-26T08:00:14;17.60;;;9.30;;
84495;SDS011;74855;51.206;17.408;2024-02-26T08:05:11;21.17;;;10.75;;
84495;SDS011;74855;51.206;17.408;2024-02-26T08:10:07;17.15;;;9.93;;
84495;SDS011;74855;51.206;17.408;2024-02-26T08:15:03;19.42;;;9.57;;
84495;SDS011;74855;51.206;17.408;2024-02-26T08:20:01;15.20;;;9.07;;
84495;SDS011;74855;51.206;17.408;2024-02-26T08:24:57;15.95;;;8.85;;
84495;SDS011;74855;51.206;17.408;2024-02-26T08:29:53;22.27;;;15.13;;
84495;SDS011;74855;51.206;17.408;2024-02-26T08:34:49;13.50;;;7.38;;
84495;SDS011;74855;51.206;17.408;2024-02-26T08:39:46;12.30;;;7.15;;
84495;SDS011;74855;51.206;17.408;2024-02-26T08:44:42;13.60;;;7.63;;
84495;SDS011;74855;51.206;17.408;2024-02-26T08:49:42;14.95;;;7.78;;
84495;SDS011;74855;51.206;17.408;2024-02-26T08:54:38;13.18;;;6.57;;
84495;SDS011;74855;51.206;17.408;2024-02-26T08:59:35;12.27;;;7.40;;
84495;SDS011;74855;51.206;17.408;2024-02-26T09:04:33;10.68;;;5.68;;
84495;SDS011;74855;51.206;17.408;2024-02-26T09:09:29;9.35;;;4.65;;
84495;SDS011;74855;51.206;17.408;2024-02-26T09:14:25;9.55;;;5.47;;
84495;SDS011;74855;51.206;17.408;2024-02-26T09:19:22;7.63;;;4.35;;
84495;SDS011;74855;51.206;17.408;2024-02-26T09:24:18;7.75;;;4.03;;
84495;SDS011;74855;51.206;17.408;2024-02-26T09:29:14;6.95;;;3.55;;
84495;SDS011;74855;51.206;17.408;2024-02-26T09:34:10;7.90;;;4.00;;
84495;SDS011;74855;51.206;17.408;2024-02-26T09:39:07;6.93;;;4.00;;
84495;SDS011;74855;51.206;17.408;2024-02-26T09:44:03;6.28;;;3.13;;
84495;SDS011;74855;51.206;17.408;2024-02-26T09:49:00;7.05;;;3.30;;
84495;SDS011;74855;51.206;17.408;2024-02-26T09:53:56;8.07;;;4.07;;
84495;SDS011;74855;51.206;17.408;2024-02-26T09:58:56;6.18;;;3.28;;
84495;SDS011;74855;51.206;17.408;2024-02-26T10:08:50;6.68;;;3.10;;
84495;SDS011;74855;51.206;17.408;2024-02-26T10:13:47;6.32;;;3.30;;
84495;SDS011;74855;51.206;17.408;2024-02-26T10:18:48;8.65;;;4.85;;
84495;SDS011;74855;51.206;17.408;2024-02-26T10:23:45;6.28;;;2.78;;
84495;SDS011;74855;51.206;17.408;2024-02-26T10:28:41;7.65;;;2.92;;
84495;SDS011;74855;51.206;17.408;2024-02-26T10:33:40;6.40;;;3.13;;
84495;SDS011;74855;51.206;17.408;2024-02-26T10:38:39;5.50;;;2.45;;
84495;SDS011;74855;51.206;17.408;2024-02-26T10:43:35;6.78;;;2.83;;
84495;SDS011;74855;51.206;17.408;2024-02-26T10:48:30;7.75;;;2.70;;
84495;SDS011;74855;51.206;17.408;2024-02-26T10:53:28;5.15;;;2.80;;
84495;SDS011;74855;51.206;17.408;2024-02-26T10:58:26;5.68;;;2.90;;
84495;SDS011;74855;51.206;17.408;2024-02-26T11:03:23;5.40;;;2.60;;
84495;SDS011;74855;51.206;17.408;2024-02-26T11:08:20;5.30;;;2.55;;
84495;SDS011;74855;51.206;17.408;2024-02-26T11:13:17;7.18;;;2.63;;
84495;SDS011;74855;51.206;17.408;2024-02-26T11:18:16;6.40;;;2.80;;
84495;SDS011;74855;51.206;17.408;2024-02-26T11:23:13;6.72;;;2.92;;
84495;SDS011;74855;51.206;17.408;2024-02-26T11:28:09;7.20;;;3.03;;
84495;SDS011;74855;51.206;17.408;2024-02-26T11:33:08;6.47;;;3.15;;
84495;SDS011;74855;51.206;17.408;2024-02-26T11:38:06;5.10;;;2.80;;
84495;SDS011;74855;51.206;17.408;2024-02-26T11:43:02;7.00;;;3.55;;
84495;SDS011;74855;51.206;17.408;2024-02-26T11:48:00;6.47;;;2.78;;
84495;SDS011;74855;51.206;17.408;2024-02-26T11:58:09;6.75;;;2.60;;
84495;SDS011;74855;51.206;17.408;2024-02-26T12:03:05;5.85;;;2.72;;
84495;SDS011;74855;51.206;17.408;2024-02-26T12:08:01;8.48;;;3.15;;
84495;SDS011;74855;51.206;17.408;2024-02-26T12:12:59;6.85;;;2.40;;
84495;SDS011;74855;51.206;17.408;2024-02-26T12:17:57;6.93;;;3.60;;
84495;SDS011;74855;51.206;17.408;2024-02-26T12:22:55;6.10;;;2.92;;
84495;SDS011;74855;51.206;17.408;2024-02-26T12:27:51;6.28;;;2.10;;
84495;SDS011;74855;51.206;17.408;2024-02-26T12:32:47;4.50;;;1.95;;
84495;SDS011;74855;51.206;17.408;2024-02-26T12:37:45;5.95;;;2.35;;
84495;SDS011;74855;51.206;17.408;2024-02-26T12:42:41;4.28;;;2.03;;
84495;SDS011;74855;51.206;17.408;2024-02-26T12:47:37;6.90;;;2.13;;
84495;SDS011;74855;51.206;17.408;2024-02-26T12:52:34;5.70;;;2.15;;
84495;SDS011;74855;51.206;17.408;2024-02-26T12:57:33;5.85;;;2.10;;
84495;SDS011;74855;51.206;17.408;2024-02-26T13:02:30;5.93;;;2.30;;
84495;SDS011;74855;51.206;17.408;2024-02-26T13:07:27;4.65;;;2.17;;
84495;SDS011;74855;51.206;17.408;2024-02-26T13:12:23;5.97;;;2.25;;
84495;SDS011;74855;51.206;17.408;2024-02-26T13:17:22;5.03;;;2.20;;
84495;SDS011;74855;51.206;17.408;2024-02-26T13:22:18;4.75;;;1.83;;
84495;SDS011;74855;51.206;17.408;2024-02-26T13:27:20;4.90;;;1.80;;
84495;SDS011;74855;51.206;17.408;2024-02-26T13:32:17;6.93;;;2.22;;
84495;SDS011;74855;51.206;17.408;2024-02-26T13:37:14;5.78;;;2.13;;
84495;SDS011;74855;51.206;17.408;2024-02-26T13:42:09;5.35;;;2.35;;
84495;SDS011;74855;51.206;17.408;2024-02-26T13:47:05;5.13;;;2.15;;
84495;SDS011;74855;51.206;17.408;2024-02-26T13:52:01;6.13;;;1.90;;
84495;SDS011;74855;51.206;17.408;2024-02-26T13:56:58;6.00;;;2.17;;
84495;SDS011;74855;51.206;17.408;2024-02-26T14:01:56;6.18;;;1.95;;
84495;SDS011;74855;51.206;17.408;2024-02-26T14:06:52;5.05;;;2.00;;
84495;SDS011;74855;51.206;17.408;2024-02-26T14:11:48;4.72;;;2.25;;
84495;SDS011;74855;51.206;17.408;2024-02-26T14:16:46;15.55;;;14.10;;
84495;SDS011;74855;51.206;17.408;2024-02-26T14:21:42;5.63;;;2.78;;
84495;SDS011;74855;51.206;17.408;2024-02-26T14:26:37;5.88;;;2.10;;
84495;SDS011;74855;51.206;17.408;2024-02-26T14:31:33;6.65;;;2.22;;
84495;SDS011;74855;51.206;17.408;2024-02-26T14:36:30;14.30;;;7.80;;
84495;SDS011;74855;51.206;17.408;2024-02-26T14:41:26;9.55;;;5.47;;
84495;SDS011;74855;51.206;17.408;2024-02-26T14:46:22;12.10;;;7.75;;
84495;SDS011;74855;51.206;17.408;2024-02-26T14:51:17;9.88;;;4.20;;
84495;SDS011;74855;51.206;17.408;2024-02-26T14:56:15;7.95;;;3.65;;
84495;SDS011;74855;51.206;17.408;2024-02-26T15:01:10;9.93;;;3.95;;
84495;SDS011;74855;51.206;17.408;2024-02-26T15:06:06;8.02;;;3.85;;
84495;SDS011;74855;51.206;17.408;2024-02-26T15:11:08;7.60;;;3.50;;
84495;SDS011;74855;51.206;17.408;2024-02-26T15:16:05;7.22;;;2.45;;
84495;SDS011;74855;51.206;17.408;2024-02-26T15:21:01;9.93;;;3.00;;
84495;SDS011;74855;51.206;17.408;2024-02-26T15:25:57;10.27;;;3.40;;
84495;SDS011;74855;51.206;17.408;2024-02-26T15:30:53;8.15;;;2.88;;
84495;SDS011;74855;51.206;17.408;2024-02-26T15:35:50;7.20;;;3.03;;
84495;SDS011;74855;51.206;17.408;2024-02-26T15:40:46;6.63;;;2.83;;
84495;SDS011;74855;51.206;17.408;2024-02-26T15:45:41;6.63;;;2.58;;
84495;SDS011;74855;51.206;17.408;2024-02-26T15:50:37;7.88;;;3.47;;
84495;SDS011;74855;51.206;17.408;2024-02-26T15:55:35;9.38;;;3.38;;
84495;SDS011;74855;51.206;17.408;2024-02-26T16:00:31;8.63;;;3.90;;
84495;SDS011;74855;51.206;17.408;2024-02-26T16:05:26;10.38;;;3.38;;
84495;SDS011;74855;51.206;17.408;2024-02-26T16:10:22;8.63;;;4.13;;
84495;SDS011;74855;51.206;17.408;2024-02-26T16:15:19;8.75;;;3.95;;
84495;SDS011;74855;51.206;17.408;2024-02-26T16:20:16;9.88;;;3.63;;
84495;SDS011;74855;51.206;17.408;2024-02-26T16:25:13;7.03;;;3.40;;
84495;SDS011;74855;51.206;17.408;2024-02-26T16:30:09;6.53;;;3.30;;
84495;SDS011;74855;51.206;17.408;2024-02-26T16:35:07;7.72;;;3.38;;
84495;SDS011;74855;51.206;17.408;2024-02-26T16:40:04;8.50;;;3.65;;
84495;SDS011;74855;51.206;17.408;2024-02-26T16:45:00;8.57;;;3.60;;
84495;SDS011;74855;51.206;17.408;2024-02-26T16:49:56;16.63;;;6.68;;
84495;SDS011;74855;51.206;17.408;2024-02-26T16:54:54;31.02;;;14.10;;
84495;SDS011;74855;51.206;17.408;2024-02-26T16:59:51;17.20;;;7.82;;
84495;SDS011;74855;51.206;17.408;2024-02-26T17:04:46;11.88;;;5.60;;
84495;SDS011;74855;51.206;17.408;2024-02-26T17:09:43;12.13;;;5.55;;
84495;SDS011;74855;51.206;17.408;2024-02-26T17:14:40;12.02;;;5.07;;
84495;SDS011;74855;51.206;17.408;2024-02-26T17:19:36;12.35;;;5.18;;
84495;SDS011;74855;51.206;17.408;2024-02-26T17:24:32;9.02;;;4.82;;
84495;SDS011;74855;51.206;17.408;2024-02-26T17:29:28;10.18;;;5.10;;
84495;SDS011;74855;51.206;17.408;2024-02-26T17:34:27;12.13;;;5.97;;
84495;SDS011;74855;51.206;17.408;2024-02-26T17:39:25;12.05;;;6.00;;
84495;SDS011;74855;51.206;17.408;2024-02-26T17:44:22;12.95;;;6.22;;
84495;SDS011;74855;51.206;17.408;2024-02-26T17:49:18;16.70;;;6.78;;
84495;SDS011;74855;51.206;17.408;2024-02-26T17:54:15;16.38;;;7.30;;
84495;SDS011;74855;51.206;17.408;2024-02-26T17:59:11;13.07;;;6.38;;
84495;SDS011;74855;51.206;17.408;2024-02-26T18:04:07;15.40;;;7.00;;
84495;SDS011;74855;51.206;17.408;2024-02-26T18:09:03;13.13;;;6.38;;
84495;SDS011;74855;51.206;17.408;2024-02-26T18:14:00;13.18;;;6.80;;
84495;SDS011;74855;51.206;17.408;2024-02-26T18:18:56;14.30;;;6.30;;
84495;SDS011;74855;51.206;17.408;2024-02-26T18:23:52;18.23;;;7.68;;
84495;SDS011;74855;51.206;17.408;2024-02-26T18:28:48;17.02;;;7.82;;
84495;SDS011;74855;51.206;17.408;2024-02-26T18:33:46;14.95;;;7.63;;
84495;SDS011;74855;51.206;17.408;2024-02-26T18:38:41;19.60;;;8.20;;
84495;SDS011;74855;51.206;17.408;2024-02-26T18:43:37;15.02;;;7.47;;
84495;SDS011;74855;51.206;17.408;2024-02-26T18:48:34;14.48;;;7.55;;
84495;SDS011;74855;51.206;17.408;2024-02-26T18:53:32;19.13;;;8.65;;
84495;SDS011;74855;51.206;17.408;2024-02-26T18:58:28;15.05;;;7.78;;
84495;SDS011;74855;51.206;17.408;2024-02-26T19:03:25;16.05;;;7.78;;
84495;SDS011;74855;51.206;17.408;2024-02-26T19:08:21;17.25;;;8.32;;
84495;SDS011;74855;51.206;17.408;2024-02-26T19:13:18;12.32;;;7.50;;
84495;SDS011;74855;51.206;17.408;2024-02-26T19:18:14;19.50;;;11.20;;
84495;SDS011;74855;51.206;17.408;2024-02-26T19:23:09;19.05;;;9.35;;
84495;SDS011;74855;51.206;17.408;2024-02-26T19:28:05;18.20;;;9.10;;
84495;SDS011;74855;51.206;17.408;2024-02-26T19:33:03;19.90;;;9.90;;
84495;SDS011;74855;51.206;17.408;2024-02-26T19:38:00;20.08;;;10.35;;
84495;SDS011;74855;51.206;17.408;2024-02-26T19:42:56;21.40;;;12.02;;
84495;SDS011;74855;51.206;17.408;2024-02-26T19:47:51;21.92;;;11.45;;
84495;SDS011;74855;51.206;17.408;2024-02-26T19:52:50;25.30;;;12.57;;
84495;SDS011;74855;51.206;17.408;2024-02-26T19:57:46;24.15;;;11.50;;
84495;SDS011;74855;51.206;17.408;2024-02-26T20:02:42;25.45;;;13.93;;
84495;SDS011;74855;51.206;17.408;2024-02-26T20:07:38;27.13;;;13.38;;
84495;SDS011;74855;51.206;17.408;2024-02-26T20:12:35;25.48;;;13.80;;
84495;SDS011;74855;51.206;17.408;2024-02-26T20:17:31;27.42;;;13.35;;
84495;SDS011;74855;51.206;17.408;2024-02-26T20:22:27;25.30;;;13.90;;
84495;SDS011;74855;51.206;17.408;2024-02-26T20:27:23;24.92;;;13.35;;
84495;SDS011;74855;51.206;17.408;2024-02-26T20:32:21;24.77;;;12.98;;
84495;SDS011;74855;51.206;17.408;2024-02-26T20:37:17;25.90;;;12.98;;
84495;SDS011;74855;51.206;17.408;2024-02-26T20:42:12;23.55;;;13.65;;
84495;SDS011;74855;51.206;17.408;2024-02-26T20:47:10;23.35;;;13.38;;
84495;SDS011;74855;51.206;17.408;2024-02-26T20:52:09;27.25;;;13.75;;
84495;SDS011;74855;51.206;17.408;2024-02-26T20:57:05;24.13;;;13.55;;
84495;SDS011;74855;51.206;17.408;2024-02-26T21:02:01;23.73;;;12.85;;
84495;SDS011;74855;51.206;17.408;2024-02-26T21:06:57;22.50;;;12.73;;
84495;SDS011;74855;51.206;17.408;2024-02-26T21:11:55;20.33;;;11.80;;
84495;SDS011;74855;51.206;17.408;2024-02-26T21:16:50;23.38;;;13.05;;
84495;SDS011;74855;51.206;17.408;2024-02-26T21:21:46;24.83;;;13.88;;
84495;SDS011;74855;51.206;17.408;2024-02-26T21:26:42;23.75;;;11.95;;
84495;SDS011;74855;51.206;17.408;2024-02-26T21:31:39;22.02;;;12.63;;
84495;SDS011;74855;51.206;17.408;2024-02-26T21:36:35;24.08;;;12.45;;
84495;SDS011;74855;51.206;17.408;2024-02-26T21:41:31;25.65;;;12.77;;
84495;SDS011;74855;51.206;17.408;2024-02-26T21:46:27;24.40;;;12.70;;
84495;SDS011;74855;51.206;17.408;2024-02-26T21:51:24;28.60;;;14.32;;
84495;SDS011;74855;51.206;17.408;2024-02-26T21:56:21;24.05;;;13.35;;
84495;SDS011;74855;51.206;17.408;2024-02-26T22:01:16;28.80;;;15.07;;
84495;SDS011;74855;51.206;17.408;2024-02-26T22:06:12;30.17;;;14.32;;
84495;SDS011;74855;51.206;17.408;2024-02-26T22:11:09;30.85;;;15.25;;
84495;SDS011;74855;51.206;17.408;2024-02-26T22:16:05;25.80;;;13.98;;
84495;SDS011;74855;51.206;17.408;2024-02-26T22:21:01;23.30;;;13.35;;
84495;SDS011;74855;51.206;17.408;2024-02-26T22:25:57;29.33;;;16.40;;
84495;SDS011;74855;51.206;17.408;2024-02-26T22:30:54;30.95;;;15.38;;
84495;SDS011;74855;51.206;17.408;2024-02-26T22:35:50;30.75;;;14.80;;
84495;SDS011;74855;51.206;17.408;2024-02-26T22:40:45;27.75;;;15.57;;
84495;SDS011;74855;51.206;17.408;2024-02-26T22:45:41;30.20;;;15.68;;
84495;SDS011;74855;51.206;17.408;2024-02-26T22:50:38;28.92;;;15.13;;
84495;SDS011;74855;51.206;17.408;2024-02-26T22:55:34;27.02;;;14.27;;
84495;SDS011;74855;51.206;17.408;2024-02-26T23:00:30;28.75;;;14.38;;
84495;SDS011;74855;51.206;17.408;2024-02-26T23:05:26;25.75;;;13.20;;
84495;SDS011;74855;51.206;17.408;2024-02-26T23:10:24;27.67;;;15.05;;
84495;SDS011;74855;51.206;17.408;2024-02-26T23:15:20;30.50;;;16.50;;
84495;SDS011;74855;51.206;17.408;2024-02-26T23:20:16;28.55;;;15.65;;
84495;SDS011;74855;51.206;17.408;2024-02-26T23:25:12;30.08;;;14.73;;
84495;SDS011;74855;51.206;17.408;2024-02-26T23:30:11;31.58;;;14.90;;
84495;SDS011;74855;51.206;17.408;2024-02-26T23:35:08;30.10;;;15.52;;
84495;SDS011;74855;51.206;17.408;2024-02-26T23:40:05;27.35;;;15.00;;
84495;SDS011;74855;51.206;17.408;2024-02-26T23:45:03;25.23;;;14.30;;
84495;SDS011;74855;51.206;17.408;2024-02-26T23:50:00;27.33;;;14.93;;
84495;SDS011;74855;51.206;17.408;2024-02-26T23:54:57;27.30;;;14.57;;
84495;SDS011;74855;51.206;17.408;2024-02-26T23:59:53;26.80;;;14.05;;
